Time;durP1;ratioP1;P1;durP2;ratioP2;P2;SDS_P1;SDS_P2;PMS_P1;PMS_P2;Temp;Humidity;BMP_temperature;BMP_pressure;BME280_temperature;BME280_humidity;BME280_pressure;Samples;Min_cycle;Max_cycle;Signal;HPM_P1;HPM_P2
2022/09/22 00:01:29;;;;;;;2.95;2.38;;;;;;;9.52;75.40;99404.31;5056924;27;102616;-75
2022/09/22 00:03:59;;;;;;;2.80;2.50;;;;;;;9.68;74.21;99398.09;5052895;27;102795;-75
2022/09/22 00:06:28;;;;;;;3.15;2.80;;;;;;;9.79;73.42;99392.19;5050625;27;102980;-76
2022/09/22 00:08:59;;;;;;;5.30;3.55;;;;;;;9.28;74.66;99393.38;5051310;27;102739;-76
2022/09/22 00:11:29;;;;;;;4.57;3.65;;;;;;;9.36;74.22;99393.81;5034355;27;103224;-75
2022/09/22 00:14:01;;;;;;;4.20;3.30;;;;;;;9.39;73.90;99393.63;5035041;27;103884;-76
2022/09/22 00:16:32;;;;;;;4.20;3.80;;;;;;;9.16;73.97;99399.34;5030362;27;103458;-76
2022/09/22 00:19:00;;;;;;;4.40;3.72;;;;;;;8.74;75.24;99397.25;5050192;27;103233;-76
2022/09/22 00:21:29;;;;;;;3.80;3.30;;;;;;;8.37;78.05;99401.00;5055943;27;103107;-75
2022/09/22 00:24:00;;;;;;;4.28;3.38;;;;;;;8.46;78.90;99395.25;5050202;27;102721;-76
2022/09/22 00:26:28;;;;;;;3.67;3.15;;;;;;;8.17;80.55;99393.25;5048991;27;104732;-76
2022/09/22 00:28:56;;;;;;;2.90;2.55;;;;;;;8.67;79.21;99391.47;5049765;27;103270;-76
2022/09/22 00:31:25;;;;;;;3.58;2.90;;;;;;;9.10;77.02;99391.75;5033194;27;102991;-76
2022/09/22 00:33:54;;;;;;;3.85;3.33;;;;;;;9.20;75.55;99379.78;5048233;27;103275;-76
2022/09/22 00:36:25;;;;;;;4.00;3.58;;;;;;;9.29;74.66;99380.09;5049944;27;103718;-75
2022/09/22 00:38:55;;;;;;;5.00;4.10;;;;;;;9.12;74.86;99382.00;5029679;27;104319;-75
2022/09/22 00:41:25;;;;;;;4.57;4.10;;;;;;;9.30;74.25;99373.03;5047944;27;102869;-75
2022/09/22 00:44:32;;;;;;;4.43;3.45;;;;;;;9.23;73.77;99371.72;5052665;27;102948;-76
2022/09/22 00:47:08;;;;;;;4.87;3.50;;;;;;;9.11;73.76;99377.66;5049023;27;103262;-75
2022/09/22 00:49:44;;;;;;;4.68;3.65;;;;;;;8.56;75.77;99374.56;5049006;27;103295;-76
2022/09/22 00:52:15;;;;;;;3.75;3.38;;;;;;;8.92;75.52;99374.34;5050471;27;102691;-75
2022/09/22 00:54:43;;;;;;;4.20;3.47;;;;;;;8.90;75.45;99371.78;5031713;27;104115;-75
2022/09/22 00:57:15;;;;;;;5.78;3.22;;;;;;;8.76;75.17;99361.13;5047520;27;103776;-75
2022/09/22 00:59:45;;;;;;;4.40;3.23;;;;;;;9.00;76.21;99369.50;5050594;27;103230;-76
2022/09/22 01:02:14;;;;;;;5.55;3.90;;;;;;;8.57;76.96;99366.56;5044141;27;103122;-76
2022/09/22 01:04:42;;;;;;;3.30;3.00;;;;;;;8.99;76.54;99370.41;5048975;27;104627;-76
2022/09/22 01:07:12;;;;;;;3.40;2.93;;;;;;;9.16;75.47;99370.34;5032503;27;103322;-75
2022/09/22 01:09:40;;;;;;;2.95;2.70;;;;;;;9.28;74.49;99372.28;5045452;27;103656;-77
2022/09/22 01:12:08;;;;;;;3.42;3.13;;;;;;;9.19;74.12;99371.03;5044124;27;102674;-76
2022/09/22 01:15:03;;;;;;;3.65;3.35;;;;;;;8.96;74.03;99383.75;5046401;27;102714;-75
2022/09/22 01:17:40;;;;;;;3.50;3.20;;;;;;;9.08;74.45;99388.38;5047455;27;104460;-75
2022/09/22 01:20:40;;;;;;;3.30;3.00;;;;;;;9.20;74.04;99383.28;5028276;27;103236;-75
2022/09/22 01:23:42;;;;;;;2.77;2.57;;;;;;;9.27;73.51;99376.72;5056148;27;102919;-75
2022/09/22 01:26:31;;;;;;;4.10;3.30;;;;;;;9.20;73.12;99377.16;5026541;27;102778;-75
2022/09/22 01:29:18;;;;;;;3.38;3.08;;;;;;;9.15;72.68;99380.03;5028805;27;104366;-75
2022/09/22 01:31:54;;;;;;;2.85;2.65;;;;;;;9.18;72.81;99379.00;5032360;27;103729;-75
2022/09/22 01:34:30;;;;;;;3.10;2.80;;;;;;;9.24;72.31;99374.25;5047980;27;102803;-76
2022/09/22 01:37:05;;;;;;;2.88;2.60;;;;;;;9.30;71.66;99375.69;5047825;27;103100;-75
2022/09/22 01:39:39;;;;;;;4.20;3.00;;;;;;;9.09;72.45;99384.81;5029982;27;103941;-75
2022/09/22 01:42:11;;;;;;;4.32;3.78;;;;;;;8.71;72.21;99371.94;5031457;27;103245;-76
2022/09/22 01:44:48;;;;;;;5.60;3.95;;;;;;;7.91;77.56;99375.31;5031678;27;102963;-76
2022/09/22 01:47:21;;;;;;;4.00;3.40;;;;;;;8.40;76.22;99374.50;5033009;27;102715;-76
2022/09/22 01:49:53;;;;;;;4.22;3.60;;;;;;;8.35;75.70;99368.63;5051819;27;103337;-75
2022/09/22 01:52:26;;;;;;;4.05;3.55;;;;;;;8.42;76.16;99371.81;5053031;27;103801;-76
2022/09/22 01:54:57;;;;;;;4.55;3.80;;;;;;;8.23;76.23;99371.00;5033109;27;102813;-75
2022/09/22 01:57:36;;;;;;;3.20;2.90;;;;;;;8.71;76.18;99379.84;5034425;27;104103;-75
2022/09/22 02:00:08;;;;;;;2.40;2.20;;;;;;;8.89;74.98;99366.59;5051313;27;103250;-76
2022/09/22 02:02:47;;;;;;;2.83;2.55;;;;;;;8.99;73.80;99367.78;5050472;27;103147;-75
2022/09/22 02:05:20;;;;;;;3.22;2.92;;;;;;;9.00;73.18;99364.22;5051498;27;102597;-75
2022/09/22 02:07:52;;;;;;;3.87;2.90;;;;;;;8.96;71.92;99367.94;5052168;27;103878;-76
2022/09/22 02:10:25;;;;;;;3.22;2.70;;;;;;;8.88;72.14;99364.88;5053314;27;103323;-75
2022/09/22 02:12:54;;;;;;;3.70;3.10;;;;;;;8.92;71.86;99366.44;5053655;27;103449;-76
2022/09/22 02:18:14;;;;;;;3.30;3.00;;;;;;;8.87;72.09;99358.75;5051598;27;102889;-75
2022/09/22 02:20:42;;;;;;;3.63;3.17;;;;;;;8.71;72.44;99364.03;5032134;27;104254;-75
2022/09/22 02:23:10;;;;;;;3.90;3.40;;;;;;;8.44;73.62;99362.88;5052838;27;103275;-75
2022/09/22 02:25:40;;;;;;;2.80;2.60;;;;;;;8.65;73.58;99358.22;5049254;27;102766;-75
2022/09/22 02:28:10;;;;;;;3.53;3.03;;;;;;;8.70;73.69;99359.69;5050461;27;104322;-75
2022/09/22 02:30:38;;;;;;;3.43;2.97;;;;;;;8.68;73.21;99358.06;5051425;27;104433;-75
2022/09/22 02:33:06;;;;;;;4.47;3.20;;;;;;;8.69;73.07;99355.38;5051291;27;104676;-75
2022/09/22 02:35:39;;;;;;;3.85;3.13;;;;;;;8.43;73.38;99358.53;5055277;27;102755;-75
2022/09/22 02:38:13;;;;;;;4.50;3.67;;;;;;;7.91;76.60;99355.13;5049712;27;102703;-75
2022/09/22 02:40:46;;;;;;;3.33;3.03;;;;;;;8.16;77.03;99349.44;5050269;27;104409;-75
2022/09/22 02:43:22;;;;;;;4.38;3.90;;;;;;;7.32;79.25;99357.25;5053030;27;103507;-76
2022/09/22 02:45:57;;;;;;;4.13;3.70;;;;;;;7.57;80.29;99355.97;5055981;27;102713;-75
2022/09/22 02:48:28;;;;;;;4.38;3.97;;;;;;;7.36;80.02;99351.75;5031904;27;104190;-75
2022/09/22 02:50:57;;;;;;;3.33;3.03;;;;;;;7.93;79.52;99352.41;5056080;27;103342;-75
2022/09/22 02:53:25;;;;;;;2.60;2.40;;;;;;;8.27;77.31;99344.50;5051827;27;103844;-75
2022/09/22 02:55:53;;;;;;;2.70;2.50;;;;;;;8.45;76.05;99353.22;5050908;27;103086;-75
2022/09/22 02:58:20;;;;;;;2.93;2.73;;;;;;;8.54;74.20;99356.19;5035270;27;103957;-76
2022/09/22 03:00:48;;;;;;;3.80;3.25;;;;;;;8.48;72.33;99353.88;5054265;27;102994;-75
2022/09/22 03:03:16;;;;;;;3.05;2.60;;;;;;;8.50;72.69;99349.41;5029459;27;103300;-75
2022/09/22 03:05:43;;;;;;;2.92;2.67;;;;;;;8.57;72.42;99353.38;5051017;27;102622;-75
2022/09/22 03:08:12;;;;;;;3.50;3.08;;;;;;;8.33;72.53;99351.22;5035892;27;104204;-75
2022/09/22 03:10:40;;;;;;;3.10;2.90;;;;;;;8.39;72.83;99345.63;5031855;27;104295;-75
2022/09/22 03:13:08;;;;;;;3.65;3.05;;;;;;;8.32;72.42;99339.84;5048255;27;103945;-75
2022/09/22 03:15:43;;;;;;;3.83;3.07;;;;;;;8.34;72.93;99343.22;5052252;27;102955;-76
2022/09/22 03:18:12;;;;;;;4.40;3.60;;;;;;;8.14;72.37;99346.03;5050276;27;102757;-75
2022/09/22 03:20:39;;;;;;;3.67;3.38;;;;;;;8.09;73.43;99350.69;5032440;27;104574;-75
2022/09/22 03:23:07;;;;;;;4.25;3.58;;;;;;;7.90;73.36;99347.31;5035917;27;103570;-75
2022/09/22 03:25:36;;;;;;;4.25;3.72;;;;;;;7.69;74.11;99348.41;5051234;27;103145;-75
2022/09/22 03:28:07;;;;;;;4.15;3.55;;;;;;;7.58;75.50;99341.88;5028349;27;106762;-75
2022/09/22 03:30:36;;;;;;;5.57;4.03;;;;;;;7.16;77.47;99349.25;5055062;27;104080;-75
2022/09/22 03:33:03;;;;;;;4.13;3.60;;;;;;;7.40;77.36;99347.22;5059181;27;103179;-74
2022/09/22 03:35:31;;;;;;;4.32;3.28;;;;;;;7.78;76.32;99337.41;5054621;27;102587;-75
2022/09/22 03:37:59;;;;;;;3.40;3.05;;;;;;;7.87;74.66;99342.19;5038464;27;102778;-74
2022/09/22 03:40:27;;;;;;;4.82;3.90;;;;;;;7.51;74.49;99340.50;5053076;27;103726;-75
2022/09/22 03:42:56;;;;;;;3.50;3.20;;;;;;;7.80;75.47;99338.19;5038694;27;103220;-75
2022/09/22 03:45:24;;;;;;;4.60;3.30;;;;;;;7.87;74.34;99334.28;5050785;27;102657;-73
2022/09/22 03:47:53;;;;;;;4.73;3.67;;;;;;;7.05;76.64;99340.16;5040845;27;102857;-73
2022/09/22 03:50:21;;;;;;;4.63;3.65;;;;;;;7.02;78.23;99337.72;5057521;27;103469;-73
2022/09/22 03:52:49;;;;;;;3.53;3.20;;;;;;;7.16;79.32;99343.16;5054221;27;103358;-73
2022/09/22 03:55:17;;;;;;;3.00;2.70;;;;;;;7.62;77.48;99331.22;5058793;27;102730;-72
2022/09/22 03:57:45;;;;;;;3.37;3.03;;;;;;;7.73;76.05;99335.00;5030967;27;102822;-67
2022/09/22 04:00:15;;;;;;;2.80;2.53;;;;;;;7.88;75.22;99339.50;5032896;27;103255;-66
2022/09/22 04:02:43;;;;;;;4.53;3.67;;;;;;;7.59;75.41;99333.09;5053344;27;103428;-66
2022/09/22 04:05:13;;;;;;;4.27;3.50;;;;;;;7.23;76.92;99328.78;5054403;27;103360;-65
2022/09/22 04:07:43;;;;;;;3.20;2.90;;;;;;;7.59;76.80;99327.81;5054834;27;104145;-65
2022/09/22 04:10:11;;;;;;;2.55;2.35;;;;;;;7.83;75.59;99330.97;5055011;27;103157;-66
2022/09/22 04:12:41;;;;;;;4.28;3.20;;;;;;;7.76;74.57;99321.69;5053523;27;103305;-66
2022/09/22 04:15:09;;;;;;;3.53;3.20;;;;;;;7.70;74.95;99324.63;5052681;27;102795;-66
2022/09/22 04:17:38;;;;;;;3.37;3.07;;;;;;;7.81;74.38;99326.72;5049751;27;104304;-66
2022/09/22 04:20:10;;;;;;;3.85;3.30;;;;;;;7.76;74.03;99329.59;5047533;27;103695;-66
2022/09/22 04:22:38;;;;;;;3.88;3.20;;;;;;;7.22;76.13;99327.94;5056920;27;103275;-65
2022/09/22 04:25:07;;;;;;;4.30;3.47;;;;;;;7.45;75.06;99332.91;5047850;27;102782;-65
2022/09/22 04:27:37;;;;;;;4.13;3.73;;;;;;;7.16;75.93;99328.22;5057388;27;104855;-66
2022/09/22 04:30:06;;;;;;;5.17;3.60;;;;;;;7.27;76.50;99333.81;5053329;27;102910;-66
2022/09/22 04:32:34;;;;;;;3.77;3.20;;;;;;;7.54;75.68;99334.25;5037640;27;104230;-66
2022/09/22 04:35:03;;;;;;;4.13;3.73;;;;;;;7.50;74.16;99335.31;5055921;27;102664;-66
2022/09/22 04:37:31;;;;;;;3.72;3.22;;;;;;;7.46;74.09;99334.63;5047561;27;103100;-66
2022/09/22 04:39:58;;;;;;;3.90;3.50;;;;;;;7.39;75.43;99346.34;5050011;27;104033;-65
2022/09/22 04:42:28;;;;;;;3.97;3.40;;;;;;;7.43;73.94;99337.41;5034547;27;103182;-65
2022/09/22 04:45:00;;;;;;;3.42;3.08;;;;;;;7.43;74.55;99329.53;5034213;27;103751;-65
2022/09/22 04:47:28;;;;;;;3.85;2.80;;;;;;;7.51;74.28;99330.00;5054039;27;103796;-66
2022/09/22 04:49:56;;;;;;;3.60;3.20;;;;;;;7.54;73.60;99329.84;5051692;27;103651;-65
2022/09/22 04:52:26;;;;;;;4.77;3.30;;;;;;;7.50;73.71;99330.91;5042499;27;103551;-69
2022/09/22 04:54:54;;;;;;;4.40;3.20;;;;;;;7.51;73.57;99322.09;5052044;27;102723;-68
2022/09/22 04:57:21;;;;;;;3.42;2.90;;;;;;;7.60;73.41;99326.03;5044720;27;103749;-66
2022/09/22 04:59:49;;;;;;;5.50;4.00;;;;;;;6.66;75.40;99332.41;5033214;27;104450;-65
2022/09/22 05:02:17;;;;;;;3.95;3.55;;;;;;;6.68;77.30;99330.59;5053916;27;103461;-66
2022/09/22 05:04:48;;;;;;;6.70;4.35;;;;;;;6.60;77.73;99338.78;5046687;27;103195;-66
2022/09/22 05:07:15;;;;;;;4.38;3.58;;;;;;;6.75;77.06;99337.25;5030206;27;104415;-66
2022/09/22 05:09:44;;;;;;;6.05;4.32;;;;;;;7.01;77.14;99334.25;5047047;27;103278;-65
2022/09/22 05:12:12;;;;;;;6.18;5.25;;;;;;;6.05;80.51;99339.56;5027813;27;103367;-65
2022/09/22 05:14:42;;;;;;;6.38;4.80;;;;;;;6.14;82.72;99347.91;5032931;27;103098;-66
2022/09/22 05:17:10;;;;;;;6.47;4.57;;;;;;;6.46;81.03;99343.81;5053464;27;104199;-65
2022/09/22 05:19:37;;;;;;;4.70;4.20;;;;;;;6.54;81.40;99348.75;5035837;27;103959;-65
2022/09/22 05:22:05;;;;;;;4.97;4.40;;;;;;;6.61;80.69;99345.75;5052819;27;103383;-64
2022/09/22 05:24:33;;;;;;;4.60;4.05;;;;;;;6.93;80.03;99341.63;5052153;27;102694;-66
2022/09/22 05:27:03;;;;;;;4.63;4.22;;;;;;;6.80;79.95;99353.63;5057127;27;102735;-66
2022/09/22 05:29:31;;;;;;;3.60;3.30;;;;;;;7.26;79.44;99349.66;5051522;27;104340;-65
2022/09/22 05:31:59;;;;;;;4.77;3.60;;;;;;;7.38;77.25;99365.69;5052419;27;103408;-65
2022/09/22 05:34:27;;;;;;;5.95;3.97;;;;;;;7.33;77.60;99357.16;5048492;27;102763;-64
2022/09/22 05:36:54;;;;;;;3.30;3.00;;;;;;;7.55;77.34;99355.19;5035181;27;103677;-64
2022/09/22 05:39:22;;;;;;;3.70;3.40;;;;;;;7.65;76.69;99352.97;5055090;27;103644;-64
2022/09/22 05:41:52;;;;;;;3.83;3.38;;;;;;;7.65;76.40;99360.84;5056494;27;103395;-64
2022/09/22 05:44:22;;;;;;;3.55;2.80;;;;;;;7.85;75.57;99359.84;5038911;27;102924;-64
2022/09/22 05:46:50;;;;;;;3.30;3.00;;;;;;;7.96;74.55;99355.75;5058743;27;103701;-64
2022/09/22 05:49:17;;;;;;;4.38;3.97;;;;;;;7.78;74.61;99353.19;5056280;27;103698;-65
2022/09/22 05:51:45;;;;;;;3.67;2.97;;;;;;;7.97;74.25;99353.97;5051040;27;103620;-64
2022/09/22 05:54:14;;;;;;;4.43;3.70;;;;;;;8.01;74.29;99360.75;5052782;27;102753;-64
2022/09/22 05:56:48;;;;;;;3.72;3.30;;;;;;;8.15;74.29;99353.84;5059211;27;103026;-64
2022/09/22 05:59:15;;;;;;;4.10;3.70;;;;;;;8.23;74.29;99352.59;5033525;27;103042;-64
2022/09/22 06:01:44;;;;;;;3.90;3.50;;;;;;;8.31;74.58;99359.19;5038924;27;104444;-64
2022/09/22 06:04:12;;;;;;;3.00;2.75;;;;;;;8.47;74.87;99353.97;5054124;27;103141;-64
2022/09/22 06:06:41;;;;;;;3.63;3.00;;;;;;;8.61;74.49;99354.94;5039780;27;103818;-64
2022/09/22 06:09:09;;;;;;;3.65;3.25;;;;;;;8.70;73.66;99362.31;5038497;27;105204;-64
2022/09/22 06:11:37;;;;;;;3.10;2.80;;;;;;;8.83;73.32;99356.38;5056502;27;103278;-65
2022/09/22 06:14:05;;;;;;;3.17;2.88;;;;;;;8.93;73.13;99360.22;5035461;27;102913;-65
2022/09/22 06:16:34;;;;;;;3.50;3.20;;;;;;;9.03;72.93;99356.16;5040045;27;102996;-65
2022/09/22 06:19:04;;;;;;;3.40;3.10;;;;;;;9.16;72.38;99359.78;5035656;27;104231;-65
2022/09/22 06:21:32;;;;;;;3.30;3.00;;;;;;;9.25;72.09;99361.91;5054041;27;103414;-65
2022/09/22 06:24:00;;;;;;;3.03;2.70;;;;;;;9.37;71.86;99357.75;5036473;27;102810;-65
2022/09/22 06:26:29;;;;;;;4.00;3.00;;;;;;;9.47;71.57;99358.91;5036701;27;103403;-65
2022/09/22 06:28:57;;;;;;;2.85;2.65;;;;;;;9.56;71.21;99353.97;5035460;27;103176;-65
2022/09/22 06:31:25;;;;;;;3.20;2.90;;;;;;;9.65;71.67;99357.84;5038398;27;104202;-65
2022/09/22 06:33:53;;;;;;;4.45;3.25;;;;;;;9.72;71.68;99353.91;5045483;27;102572;-64
2022/09/22 06:36:29;;;;;;;3.70;3.15;;;;;;;9.78;71.94;99351.75;5034425;27;103971;-65
2022/09/22 06:38:58;;;;;;;3.60;2.80;;;;;;;9.87;71.90;99353.00;5052769;27;103313;-65
2022/09/22 06:41:26;;;;;;;4.15;3.60;;;;;;;9.95;71.95;99355.19;5031969;27;104185;-65
2022/09/22 06:44:01;;;;;;;4.47;3.37;;;;;;;10.00;72.00;99342.56;5032722;27;102835;-65
2022/09/22 06:46:32;;;;;;;3.85;3.40;;;;;;;10.13;72.04;99340.94;5035624;27;102971;-65
2022/09/22 06:49:02;;;;;;;6.17;3.90;;;;;;;10.10;71.92;99335.81;5030558;27;103096;-65
2022/09/22 06:51:33;;;;;;;3.28;2.97;;;;;;;10.35;71.88;99338.69;5048538;27;102917;-65
2022/09/22 06:54:02;;;;;;;3.65;2.90;;;;;;;10.55;71.38;99337.44;5060647;27;103074;-65
2022/09/22 06:56:34;;;;;;;11.82;5.00;;;;;;;10.09;73.01;99337.59;5057635;27;104095;-65
2022/09/22 06:59:11;;;;;;;4.97;4.50;;;;;;;10.28;75.00;99345.25;5033658;27;103987;-65
2022/09/22 07:01:41;;;;;;;5.72;4.57;;;;;;;10.46;74.68;99341.50;5053508;27;103279;-65
2022/09/22 07:04:11;;;;;;;5.70;4.63;;;;;;;10.30;75.46;99346.03;5039302;27;102668;-65
2022/09/22 07:06:41;;;;;;;6.53;4.70;;;;;;;10.38;76.45;99333.22;5041999;27;104026;-65
2022/09/22 07:09:11;;;;;;;5.10;3.95;;;;;;;10.95;75.23;99340.13;5041299;27;103671;-65
2022/09/22 07:11:39;;;;;;;6.75;5.13;;;;;;;10.52;75.98;99341.13;5041288;27;103268;-65
2022/09/22 07:14:10;;;;;;;5.63;4.93;;;;;;;10.44;76.29;99333.66;5040244;27;102698;-65
2022/09/22 07:16:39;;;;;;;7.78;4.60;;;;;;;11.17;73.53;99333.47;5040276;27;104230;-64
2022/09/22 07:19:08;;;;;;;7.65;5.28;;;;;;;9.67;79.59;99341.00;5048958;27;104229;-65
2022/09/22 07:21:36;;;;;;;6.32;4.90;;;;;;;10.54;77.89;99333.09;5038339;27;103999;-65
2022/09/22 07:24:08;;;;;;;6.60;4.68;;;;;;;10.84;75.39;99336.47;5055791;27;102669;-65
2022/09/22 07:26:38;;;;;;;5.50;4.77;;;;;;;11.67;72.50;99335.44;5040446;27;103010;-65
2022/09/22 07:29:10;;;;;;;7.43;5.20;;;;;;;11.04;75.12;99333.41;5053098;27;103219;-65
2022/09/22 07:31:40;;;;;;;5.32;4.82;;;;;;;11.55;71.51;99331.81;5038086;27;103357;-65
2022/09/22 07:34:09;;;;;;;5.93;4.90;;;;;;;11.45;72.45;99333.38;5029046;27;103717;-65
2022/09/22 07:36:37;;;;;;;6.30;5.25;;;;;;;11.21;73.75;99335.81;5039371;27;105321;-65
2022/09/22 07:39:10;;;;;;;5.67;5.03;;;;;;;11.66;73.85;99337.22;5034573;27;103389;-65
2022/09/22 07:41:45;;;;;;;5.90;4.78;;;;;;;12.39;69.41;99333.09;5033119;27;102692;-65
2022/09/22 07:47:01;;;;;;;7.28;5.47;;;;;;;13.47;68.20;99338.56;5053527;27;102697;-65
2022/09/22 07:49:30;;;;;;;6.87;5.20;;;;;;;13.97;66.31;99326.81;5058845;27;103409;-65
2022/09/22 07:51:58;;;;;;;6.53;5.20;;;;;;;14.54;63.52;99326.81;5038320;27;102598;-64
2022/09/22 07:54:29;;;;;;;11.43;5.47;;;;;;;14.13;64.60;99325.50;5040921;27;102739;-64
2022/09/22 07:56:58;;;;;;;7.80;5.43;;;;;;;14.80;62.55;99331.75;5037770;27;103772;-64
2022/09/22 07:59:26;;;;;;;5.45;4.53;;;;;;;13.93;64.64;99331.50;5052189;27;103260;-64
2022/09/22 08:01:54;;;;;;;5.35;4.72;;;;;;;15.33;62.31;99330.06;5039164;27;103337;-65
2022/09/22 08:04:25;;;;;;;6.13;4.93;;;;;;;15.14;59.12;99321.91;5056137;27;103034;-64
2022/09/22 08:06:55;;;;;;;7.43;5.60;;;;;;;15.15;60.34;99328.06;5040016;27;104587;-64
2022/09/22 08:09:24;;;;;;;7.05;5.80;;;;;;;14.63;60.87;99326.91;5036572;27;104151;-64
2022/09/22 08:11:53;;;;;;;8.55;5.70;;;;;;;14.51;61.17;99310.09;5038088;27;103199;-64
2022/09/22 08:14:22;;;;;;;8.73;6.10;;;;;;;15.76;58.67;99307.91;5055325;27;103079;-64
2022/09/22 08:16:52;;;;;;;8.32;5.40;;;;;;;16.20;56.93;99307.63;5040128;27;102648;-65
2022/09/22 08:19:23;;;;;;;7.07;5.47;;;;;;;17.11;55.84;99311.16;5032619;27;103444;-65
2022/09/22 08:21:53;;;;;;;5.80;5.20;;;;;;;16.55;57.92;99302.81;5057439;27;103197;-64
2022/09/22 08:24:22;;;;;;;8.13;5.72;;;;;;;17.18;58.92;99311.41;5036771;27;103058;-65
2022/09/22 08:26:54;;;;;;;8.85;5.45;;;;;;;17.75;55.96;99300.81;5057598;27;102872;-65
2022/09/22 08:29:24;;;;;;;5.90;5.18;;;;;;;17.07;55.91;99303.53;5036150;27;104258;-64
2022/09/22 08:31:52;;;;;;;5.95;5.35;;;;;;;15.92;58.51;99305.63;5052092;27;103702;-65
2022/09/22 08:34:21;;;;;;;5.90;4.90;;;;;;;17.59;55.85;99305.06;5037827;27;102721;-65
2022/09/22 08:36:52;;;;;;;5.38;4.60;;;;;;;17.79;54.02;99293.38;5038925;27;103717;-65
2022/09/22 08:39:20;;;;;;;6.97;4.70;;;;;;;18.30;51.88;99301.03;5035068;27;103227;-65
2022/09/22 08:42:07;;;;;;;5.40;4.55;;;;;;;18.59;53.25;99295.59;5050542;27;102701;-65
2022/09/22 08:44:40;;;;;;;4.37;3.97;;;;;;;18.89;51.01;99296.16;5039620;27;102872;-65
2022/09/22 08:51:50;;;;;;;5.20;3.60;;;;;;;19.30;51.92;99292.13;5039037;27;102751;-65
2022/09/22 08:53:08;;;;;;;3.97;2.90;;;;;;;19.54;48.47;99288.84;5023923;27;103264;-65
2022/09/22 08:55:41;;;;;;;3.80;3.10;;;;;;;19.42;50.11;99290.09;5053924;27;103143;-65
2022/09/22 08:58:23;;;;;;;3.27;2.83;;;;;;;20.17;47.90;99289.53;5053748;27;104204;-65
2022/09/22 09:01:00;;;;;;;3.67;2.70;;;;;;;20.43;47.55;99286.91;5045682;27;103699;-65
2022/09/22 09:03:38;;;;;;;3.80;2.38;;;;;;;20.01;47.91;99282.22;5039130;27;104441;-65
2022/09/22 09:06:13;;;;;;;3.23;2.20;;;;;;;19.27;49.17;99287.06;5055183;27;103096;-65
2022/09/22 09:09:11;;;;;;;3.00;2.58;;;;;;;20.47;46.91;99282.88;5055747;27;103918;-65
2022/09/22 09:11:56;;;;;;;1.85;1.70;;;;;;;20.21;46.44;99283.69;5054688;27;104069;-65
2022/09/22 09:14:49;;;;;;;2.03;1.77;;;;;;;20.33;46.68;99283.47;5052870;27;103453;-65
2022/09/22 09:17:21;;;;;;;2.47;1.92;;;;;;;20.49;46.33;99281.72;5036138;27;102888;-66
2022/09/22 09:19:54;;;;;;;3.33;1.53;;;;;;;20.49;46.13;99278.22;5054392;27;103899;-66
2022/09/22 09:22:27;;;;;;;1.50;1.40;;;;;;;20.95;43.92;99279.56;5048418;27;103395;-65
2022/09/22 09:24:57;;;;;;;2.20;1.40;;;;;;;20.75;44.95;99281.69;5034948;27;104066;-65
2022/09/22 09:27:52;;;;;;;1.93;1.47;;;;;;;20.43;44.42;99281.53;5036228;27;103270;-65
2022/09/22 09:30:22;;;;;;;1.42;1.33;;;;;;;21.24;44.03;99270.13;5028943;27;104289;-65
2022/09/22 09:32:56;;;;;;;2.85;1.63;;;;;;;20.77;44.71;99263.59;5055027;27;103842;-65
2022/09/22 09:35:36;;;;;;;2.00;1.30;;;;;;;21.08;45.54;99267.38;5034094;27;103279;-65
2022/09/22 09:38:13;;;;;;;2.45;1.23;;;;;;;21.19;44.23;99269.75;5038002;27;103033;-65
2022/09/22 09:40:41;;;;;;;1.58;1.30;;;;;;;21.04;43.06;99271.38;5054045;27;103042;-65
2022/09/22 09:43:10;;;;;;;2.45;1.40;;;;;;;21.43;42.49;99260.06;5054577;27;103226;-65
2022/09/22 09:45:53;;;;;;;1.60;1.50;;;;;;;18.75;47.12;99274.41;5055243;27;103335;-64
2022/09/22 09:48:31;;;;;;;2.50;1.27;;;;;;;19.16;46.36;99256.97;5053218;27;102655;-64
2022/09/22 09:51:04;;;;;;;2.08;1.35;;;;;;;20.35;44.80;99257.34;5032723;27;103597;-64
2022/09/22 09:53:37;;;;;;;1.87;1.20;;;;;;;20.56;43.87;99271.19;5032537;27;103867;-63
2022/09/22 09:56:21;;;;;;;1.38;1.25;;;;;;;20.19;44.82;99266.94;5047745;27;103438;-64
2022/09/22 10:01:46;;;;;;;1.50;1.20;;;;;;;20.92;43.00;99256.56;5050924;27;103236;-64
2022/09/22 10:04:21;;;;;;;1.37;1.20;;;;;;;19.18;46.54;99263.00;5055301;27;104036;-64
2022/09/22 10:06:49;;;;;;;1.60;1.10;;;;;;;19.54;45.15;99262.03;5049361;27;103367;-64
2022/09/22 10:09:26;;;;;;;1.37;1.20;;;;;;;19.75;46.57;99259.06;5036272;27;102825;-64
2022/09/22 10:11:59;;;;;;;1.45;1.20;;;;;;;20.68;43.98;99253.81;5038180;27;103392;-64
2022/09/22 10:14:31;;;;;;;1.10;1.00;;;;;;;20.95;43.97;99250.03;5043046;27;103927;-64
2022/09/22 10:17:02;;;;;;;3.13;1.20;;;;;;;21.50;42.88;99247.66;5037660;27;105244;-66
2022/09/22 10:19:33;;;;;;;1.10;1.00;;;;;;;21.37;42.41;99246.31;5060328;27;102852;-64
2022/09/22 10:22:24;;;;;;;2.28;1.15;;;;;;;21.71;42.06;99234.56;5041832;27;103031;-64
2022/09/22 10:24:58;;;;;;;1.50;1.20;;;;;;;18.55;45.91;99244.22;5054883;27;102964;-64
2022/09/22 10:27:27;;;;;;;2.47;1.27;;;;;;;18.69;46.16;99242.88;5052803;27;103677;-64
2022/09/22 10:30:22;;;;;;;1.10;1.00;;;;;;;20.20;45.17;99236.44;5053463;27;102771;-64
2022/09/22 10:33:10;;;;;;;0.82;0.77;;;;;;;20.55;44.43;99231.91;5057228;27;102764;-64
2022/09/22 10:35:39;;;;;;;2.20;1.20;;;;;;;20.76;42.53;99229.66;5039918;27;104280;-64
2022/09/22 10:38:15;;;;;;;1.95;1.75;;;;;;;20.81;42.45;99228.19;5040885;27;104239;-65
2022/09/22 10:40:47;;;;;;;2.10;1.45;;;;;;;20.40;42.75;99229.03;5038792;27;102739;-64
2022/09/22 10:43:35;;;;;;;1.83;1.63;;;;;;;20.72;41.85;99222.94;5056510;27;104154;-65
2022/09/22 10:46:39;;;;;;;2.20;1.80;;;;;;;19.22;44.23;99218.84;5054496;27;104312;-64
2022/09/22 10:49:13;;;;;;;1.60;1.20;;;;;;;19.80;45.99;99230.78;5052379;27;103165;-64
2022/09/22 10:51:58;;;;;;;1.48;1.20;;;;;;;20.41;43.04;99211.06;5057077;27;102605;-65
2022/09/22 10:54:47;;;;;;;1.92;1.15;;;;;;;21.34;42.21;99209.00;5059023;27;103607;-65
2022/09/22 10:57:25;;;;;;;1.73;1.20;;;;;;;21.61;41.95;99209.69;5036341;27;104624;-65
2022/09/22 11:00:10;;;;;;;2.88;1.70;;;;;;;21.65;40.91;99211.03;5053988;27;103057;-65
2022/09/22 11:03:08;;;;;;;1.70;1.25;;;;;;;21.06;42.38;99209.44;5054977;27;102725;-65
2022/09/22 11:14:36;;;;;;;1.30;1.20;;;;;;;21.59;41.61;99203.63;5045279;27;102854;-64
2022/09/22 11:17:17;;;;;;;1.70;1.10;;;;;;;21.22;41.45;99204.13;5030600;27;103402;-64
2022/09/22 11:20:21;;;;;;;2.70;1.30;;;;;;;21.17;41.72;99196.56;5033113;27;104085;-64
2022/09/22 11:23:07;;;;;;;2.15;1.00;;;;;;;21.54;41.16;99203.31;5030758;27;103217;-64
2022/09/22 11:25:49;;;;;;;1.55;1.20;;;;;;;22.40;39.78;99197.13;5047036;27;103124;-65
2022/09/22 11:28:33;;;;;;;1.83;1.20;;;;;;;21.89;39.39;99193.03;5027252;27;104153;-65
2022/09/22 11:31:04;;;;;;;1.10;1.00;;;;;;;22.61;39.17;99188.47;5041810;27;103316;-64
2022/09/22 11:34:02;;;;;;;1.10;1.00;;;;;;;20.81;39.27;99185.22;5048027;27;103441;-65
2022/09/22 11:36:54;;;;;;;1.17;0.98;;;;;;;19.89;43.10;99186.09;5021702;27;103073;-65
2022/09/22 11:39:45;;;;;;;2.05;0.85;;;;;;;22.03;41.00;99178.09;5020405;27;104536;-64
2022/09/22 11:42:20;;;;;;;2.63;1.20;;;;;;;22.81;38.76;99172.75;5016071;27;104351;-65
2022/09/22 11:45:00;;;;;;;1.50;1.00;;;;;;;22.88;38.53;99169.16;5026751;27;103416;-64
2022/09/22 11:47:42;;;;;;;2.07;1.00;;;;;;;22.79;39.34;99158.63;5031137;27;102890;-65
2022/09/22 11:50:39;;;;;;;2.67;0.90;;;;;;;20.92;40.85;99165.25;5034026;27;102674;-65
2022/09/22 11:53:19;;;;;;;1.50;0.90;;;;;;;21.52;40.87;99156.94;5015813;27;104467;-64
2022/09/22 11:56:03;;;;;;;2.40;1.13;;;;;;;21.05;41.00;99154.84;5022897;27;103414;-64
2022/09/22 11:58:33;;;;;;;2.05;0.80;;;;;;;21.43;40.50;99157.94;5028801;27;102628;-64
2022/09/22 12:01:05;;;;;;;1.20;0.90;;;;;;;20.49;41.49;99149.38;5022808;27;103380;-64
2022/09/22 12:03:44;;;;;;;2.20;1.10;;;;;;;19.24;42.96;99157.94;5025458;27;104029;-64
2022/09/22 12:06:17;;;;;;;1.30;0.90;;;;;;;20.10;41.98;99152.53;5017364;27;104665;-64
2022/09/22 12:08:52;;;;;;;1.17;0.90;;;;;;;21.14;40.68;99143.16;5024818;27;102831;-64
2022/09/22 12:11:27;;;;;;;1.70;1.00;;;;;;;20.47;40.94;99151.38;5031528;27;104164;-64
2022/09/22 12:13:57;;;;;;;1.20;0.88;;;;;;;21.45;40.59;99150.53;5019664;27;103230;-64
2022/09/22 12:16:40;;;;;;;1.80;1.00;;;;;;;20.64;40.89;99145.06;5022767;27;104047;-64